createdAt,value
2022-07-26T00:00:47.173Z,1005.78
2022-07-26T00:01:47.333Z,1005.81
2022-07-26T00:02:47.325Z,1005.83
2022-07-26T00:03:47.098Z,1005.86
2022-07-26T00:04:47.087Z,1005.84
2022-07-26T00:05:47.072Z,1005.89
2022-07-26T00:06:47.057Z,1005.87
2022-07-26T00:07:47.045Z,1005.89
2022-07-26T00:08:47.030Z,1005.84
2022-07-26T00:09:48.545Z,1005.85
2022-07-26T00:10:47.005Z,1005.88
2022-07-26T00:11:46.990Z,1005.88
2022-07-26T00:12:46.974Z,1005.87
2022-07-26T00:13:46.964Z,1005.86
2022-07-26T00:14:46.946Z,1005.89
2022-07-26T00:15:46.943Z,1005.86
2022-07-26T00:16:46.982Z,1005.87
2022-07-26T00:17:46.905Z,1005.91
2022-07-26T00:18:46.896Z,1005.89
2022-07-26T00:19:46.875Z,1005.87
2022-07-26T00:20:46.872Z,1005.84
2022-07-26T00:21:46.854Z,1005.84
2022-07-26T00:22:46.840Z,1005.84
2022-07-26T00:23:46.827Z,1005.88
2022-07-26T00:24:46.807Z,1005.92
2022-07-26T00:25:46.795Z,1005.91
2022-07-26T00:26:46.787Z,1005.92
2022-07-26T00:27:46.765Z,1005.90
2022-07-26T00:28:46.755Z,1005.91
2022-07-26T00:29:46.737Z,1005.93
2022-07-26T00:30:46.723Z,1005.87
2022-07-26T00:31:46.801Z,1005.92
2022-07-26T00:32:46.698Z,1005.90
2022-07-26T00:33:46.688Z,1005.91
2022-07-26T00:34:46.670Z,1005.91
2022-07-26T00:35:46.662Z,1005.89
2022-07-26T00:36:46.645Z,1005.87
2022-07-26T00:37:46.632Z,1005.87
2022-07-26T00:38:46.615Z,1005.86
2022-07-26T00:39:46.603Z,1005.86
2022-07-26T00:40:46.591Z,1005.87
2022-07-26T00:41:46.572Z,1005.87
2022-07-26T00:42:46.560Z,1005.86
2022-07-26T00:43:46.546Z,1005.87
2022-07-26T00:44:46.542Z,1005.86
2022-07-26T00:45:46.602Z,1005.84
2022-07-26T00:46:46.502Z,1005.89
2022-07-26T00:47:46.493Z,1005.86
2022-07-26T00:48:46.543Z,1005.91
2022-07-26T00:49:46.464Z,1005.90
2022-07-26T00:50:46.448Z,1005.90
2022-07-26T00:51:46.693Z,1005.89
2022-07-26T00:52:46.419Z,1005.89
2022-07-26T00:53:46.405Z,1005.91
2022-07-26T00:54:46.392Z,1005.91
2022-07-26T00:55:46.376Z,1005.92
2022-07-26T00:56:46.359Z,1005.91
2022-07-26T00:57:46.354Z,1005.92
2022-07-26T00:58:46.340Z,1005.88
2022-07-26T00:59:46.325Z,1005.89
2022-07-26T01:00:46.380Z,1005.91
2022-07-26T01:01:46.473Z,1005.88
2022-07-26T01:02:46.327Z,1005.87
2022-07-26T01:03:46.267Z,1005.90
2022-07-26T01:04:46.253Z,1005.86
2022-07-26T01:05:46.235Z,1005.86
2022-07-26T01:06:46.230Z,1005.86
2022-07-26T01:07:46.209Z,1005.87
2022-07-26T01:08:46.194Z,1005.87
2022-07-26T01:09:46.186Z,1005.83
2022-07-26T01:10:46.165Z,1005.87
2022-07-26T01:11:46.149Z,1005.83
2022-07-26T01:12:46.136Z,1005.85
2022-07-26T01:13:46.122Z,1005.84
2022-07-26T01:14:46.110Z,1005.84
2022-07-26T01:15:46.147Z,1005.87
2022-07-26T01:16:46.077Z,1005.87
2022-07-26T01:17:46.066Z,1005.88
2022-07-26T01:18:46.051Z,1005.82
2022-07-26T01:19:46.039Z,1005.85
2022-07-26T01:20:46.024Z,1005.86
2022-07-26T01:21:46.010Z,1005.88
2022-07-26T01:22:45.999Z,1005.85
2022-07-26T01:23:45.985Z,1005.88
2022-07-26T01:24:45.967Z,1005.88
2022-07-26T01:25:46.081Z,1005.85
2022-07-26T01:26:45.938Z,1005.84
2022-07-26T01:27:45.922Z,1005.84
2022-07-26T01:28:45.908Z,1005.84
2022-07-26T01:29:45.897Z,1005.82
2022-07-26T01:30:45.880Z,1005.84
2022-07-26T01:31:45.952Z,1005.84
2022-07-26T01:32:45.852Z,1005.83
2022-07-26T01:33:45.840Z,1005.83
2022-07-26T01:34:45.823Z,1005.82
2022-07-26T01:35:45.816Z,1005.83
2022-07-26T01:36:45.794Z,1005.82
2022-07-26T01:37:45.783Z,1005.85
2022-07-26T01:38:45.767Z,1005.84
2022-07-26T01:39:45.752Z,1005.83
2022-07-26T01:40:45.741Z,1005.83
2022-07-26T01:41:45.726Z,1005.79
2022-07-26T01:42:45.709Z,1005.85
2022-07-26T01:43:45.704Z,1005.84
2022-07-26T01:44:45.686Z,1005.83
2022-07-26T01:45:45.744Z,1005.86
2022-07-26T01:46:45.651Z,1005.82
2022-07-26T01:47:45.636Z,1005.80
2022-07-26T01:48:45.703Z,1005.79
2022-07-26T01:49:45.609Z,1005.80
2022-07-26T01:50:45.597Z,1005.79
2022-07-26T01:51:45.585Z,1005.78
2022-07-26T01:52:45.566Z,1005.79
2022-07-26T01:53:45.557Z,1005.81
2022-07-26T01:54:45.539Z,1005.85
2022-07-26T01:55:45.521Z,1005.85
2022-07-26T01:56:45.509Z,1005.88
2022-07-26T01:57:45.496Z,1005.86
2022-07-26T01:58:45.482Z,1005.88
2022-07-26T01:59:45.466Z,1005.94
2022-07-26T02:00:45.451Z,1005.93
2022-07-26T02:01:45.468Z,1005.90
2022-07-26T02:02:45.504Z,1005.95
2022-07-26T02:03:45.407Z,1005.91
2022-07-26T02:04:45.392Z,1005.94
2022-07-26T02:05:45.378Z,1005.91
2022-07-26T02:06:45.361Z,1005.92
2022-07-26T02:07:45.351Z,1005.87
2022-07-26T02:08:45.334Z,1005.90
2022-07-26T02:09:45.321Z,1005.93
2022-07-26T02:10:45.305Z,1005.90
2022-07-26T02:11:45.297Z,1005.89
2022-07-26T02:12:45.275Z,1005.90
2022-07-26T02:13:48.792Z,1005.91
2022-07-26T02:14:45.244Z,1005.91
2022-07-26T02:15:45.303Z,1005.90
2022-07-26T02:16:45.268Z,1005.90
2022-07-26T02:17:45.206Z,1005.87
2022-07-26T02:18:45.192Z,1005.89
2022-07-26T02:19:45.176Z,1005.88
2022-07-26T02:20:45.159Z,1005.92
2022-07-26T02:21:45.148Z,1005.94
2022-07-26T02:22:45.133Z,1005.95
2022-07-26T02:23:45.116Z,1005.96
2022-07-26T02:24:45.103Z,1005.95
2022-07-26T02:25:45.086Z,1005.96
2022-07-26T02:26:45.071Z,1005.97
2022-07-26T02:27:45.058Z,1005.91
2022-07-26T02:28:45.044Z,1005.92
2022-07-26T02:29:45.031Z,1005.91
2022-07-26T02:30:45.073Z,1005.92
2022-07-26T02:31:48.396Z,1005.95
2022-07-26T02:32:44.980Z,1005.92
2022-07-26T02:33:44.973Z,1005.94
2022-07-26T02:34:44.953Z,1005.93
2022-07-26T02:35:44.942Z,1005.95
2022-07-26T02:36:44.927Z,1005.94
2022-07-26T02:37:44.907Z,1005.95
2022-07-26T02:38:44.898Z,1005.98
2022-07-26T02:39:44.884Z,1005.97
2022-07-26T02:40:44.868Z,1005.97
2022-07-26T02:41:44.849Z,1005.98
2022-07-26T02:42:44.838Z,1006.00
2022-07-26T02:43:44.823Z,1005.98
2022-07-26T02:44:44.808Z,1005.99
2022-07-26T02:45:44.788Z,1005.99
2022-07-26T02:46:44.823Z,1006.00
2022-07-26T02:47:44.764Z,1005.98
2022-07-26T02:48:44.882Z,1005.99
2022-07-26T02:49:44.731Z,1006.02
2022-07-26T02:50:44.715Z,1005.99
2022-07-26T02:51:44.701Z,1005.98
2022-07-26T02:52:44.686Z,1006.03
2022-07-26T02:53:44.670Z,1006.06
2022-07-26T02:54:44.661Z,1006.06
2022-07-26T02:55:44.641Z,1006.06
2022-07-26T02:56:44.625Z,1006.07
2022-07-26T02:57:46.717Z,1006.10
2022-07-26T02:58:44.597Z,1006.08
2022-07-26T02:59:44.588Z,1006.10
2022-07-26T03:00:44.569Z,1005.99
2022-07-26T03:01:44.640Z,1006.02
2022-07-26T03:02:44.592Z,1005.99
2022-07-26T03:03:50.106Z,1006.02
2022-07-26T03:04:44.526Z,1006.00
2022-07-26T03:05:44.501Z,1005.99
2022-07-26T03:06:44.480Z,1006.01
2022-07-26T03:07:44.464Z,1006.03
2022-07-26T03:08:44.447Z,1006.01
2022-07-26T03:09:44.435Z,1006.02
2022-07-26T03:10:44.419Z,1006.03
2022-07-26T03:11:44.408Z,1006.06
2022-07-26T03:12:44.388Z,1006.09
2022-07-26T03:13:44.373Z,1006.11
2022-07-26T03:14:44.363Z,1006.13
2022-07-26T03:15:44.387Z,1006.14
2022-07-26T03:16:44.335Z,1006.16
2022-07-26T03:17:44.320Z,1006.18
2022-07-26T03:18:44.303Z,1006.16
2022-07-26T03:19:44.285Z,1006.20
2022-07-26T03:20:44.280Z,1006.17
2022-07-26T03:21:44.257Z,1006.18
2022-07-26T03:22:44.238Z,1006.14
2022-07-26T03:23:44.234Z,1006.23
2022-07-26T03:24:44.210Z,1006.16
2022-07-26T03:25:44.198Z,1006.17
2022-07-26T03:26:44.183Z,1006.20
2022-07-26T03:27:44.164Z,1006.19
2022-07-26T03:28:44.148Z,1006.18
2022-07-26T03:29:44.137Z,1006.23
2022-07-26T03:30:44.173Z,1006.25
2022-07-26T03:31:44.110Z,1006.21
2022-07-26T03:32:44.091Z,1006.25
2022-07-26T03:33:44.078Z,1006.24
2022-07-26T03:34:44.068Z,1006.28
2022-07-26T03:35:44.045Z,1006.24
2022-07-26T03:36:44.035Z,1006.28
2022-07-26T03:37:45.541Z,1006.24
2022-07-26T03:38:44.000Z,1006.27
2022-07-26T03:39:43.991Z,1006.28
2022-07-26T03:40:43.972Z,1006.29
2022-07-26T03:41:43.967Z,1006.28
2022-07-26T03:42:43.949Z,1006.29
2022-07-26T03:43:43.941Z,1006.28
2022-07-26T03:44:43.912Z,1006.27
2022-07-26T03:45:43.933Z,1006.29
2022-07-26T03:46:43.967Z,1006.30
2022-07-26T03:47:43.899Z,1006.32
2022-07-26T03:48:43.896Z,1006.32
2022-07-26T03:49:43.837Z,1006.29
2022-07-26T03:50:43.831Z,1006.33
2022-07-26T03:51:43.813Z,1006.35
2022-07-26T03:52:43.793Z,1006.36
2022-07-26T03:53:43.777Z,1006.29
2022-07-26T03:54:43.767Z,1006.35
2022-07-26T03:55:43.747Z,1006.38
2022-07-26T03:56:43.736Z,1006.36
2022-07-26T03:57:43.719Z,1006.32
2022-07-26T03:58:43.706Z,1006.33
2022-07-26T03:59:43.694Z,1006.36
2022-07-26T04:00:43.678Z,1006.34
2022-07-26T04:01:43.720Z,1006.34
2022-07-26T04:02:43.757Z,1006.38
2022-07-26T04:03:47.605Z,1006.37
2022-07-26T04:04:43.615Z,1006.42
2022-07-26T04:05:48.888Z,1006.40
2022-07-26T04:06:43.585Z,1006.43
2022-07-26T04:07:43.567Z,1006.44
2022-07-26T04:08:43.554Z,1006.45
2022-07-26T04:09:43.542Z,1006.43
2022-07-26T04:10:43.529Z,1006.47
2022-07-26T04:11:43.510Z,1006.50
2022-07-26T04:12:43.495Z,1006.48
2022-07-26T04:13:43.487Z,1006.46
2022-07-26T04:14:43.462Z,1006.43
2022-07-26T04:15:43.448Z,1006.44
2022-07-26T04:16:44.048Z,1006.44
2022-07-26T04:17:43.420Z,1006.42
2022-07-26T04:18:43.420Z,1006.46
2022-07-26T04:19:43.392Z,1006.42
2022-07-26T04:20:43.378Z,1006.45
2022-07-26T04:21:43.359Z,1006.47
2022-07-26T04:22:43.345Z,1006.46
2022-07-26T04:23:46.547Z,1006.46
2022-07-26T04:24:43.315Z,1006.52
2022-07-26T04:25:43.301Z,1006.59
2022-07-26T04:26:43.282Z,1006.61
2022-07-26T04:27:43.272Z,1006.60
2022-07-26T04:28:43.267Z,1006.63
2022-07-26T04:29:43.249Z,1006.62
2022-07-26T04:30:43.288Z,1006.60
2022-07-26T04:31:43.209Z,1006.65
2022-07-26T04:32:43.201Z,1006.64
2022-07-26T04:33:43.182Z,1006.68
2022-07-26T04:34:43.169Z,1006.71
2022-07-26T04:35:43.157Z,1006.66
2022-07-26T04:36:43.135Z,1006.61
2022-07-26T04:37:43.120Z,1006.65
2022-07-26T04:38:43.105Z,1006.68
2022-07-26T04:39:43.096Z,1006.65
2022-07-26T04:40:43.075Z,1006.62
2022-07-26T04:41:43.068Z,1006.62
2022-07-26T04:42:43.043Z,1006.57
2022-07-26T04:43:43.027Z,1006.53
2022-07-26T04:44:43.016Z,1006.56
2022-07-26T04:45:43.078Z,1006.62
2022-07-26T04:46:44.963Z,1006.64
2022-07-26T04:47:42.974Z,1006.64
2022-07-26T04:48:43.003Z,1006.66
2022-07-26T04:49:42.944Z,1006.69
2022-07-26T04:50:42.930Z,1006.69
2022-07-26T04:51:42.916Z,1006.70
2022-07-26T04:52:42.899Z,1006.65
2022-07-26T04:53:42.886Z,1006.61
2022-07-26T04:54:42.866Z,1006.62
2022-07-26T04:55:42.856Z,1006.63
2022-07-26T04:56:42.840Z,1006.63
2022-07-26T04:57:42.835Z,1006.64
2022-07-26T04:58:42.809Z,1006.56
2022-07-26T04:59:42.795Z,1006.60
2022-07-26T05:01:03.191Z,1006.59
2022-07-26T05:01:42.824Z,1006.57
2022-07-26T05:02:42.809Z,1006.55
2022-07-26T05:03:42.736Z,1006.52
2022-07-26T05:04:42.716Z,1006.52
2022-07-26T05:05:42.708Z,1006.54
2022-07-26T05:06:42.691Z,1006.58
2022-07-26T05:07:42.672Z,1006.56
2022-07-26T05:08:42.660Z,1006.56
2022-07-26T05:09:42.642Z,1006.60
2022-07-26T05:10:45.019Z,1006.62
2022-07-26T05:11:42.616Z,1006.58
2022-07-26T05:12:42.598Z,1006.59
2022-07-26T05:13:42.592Z,1006.62
2022-07-26T05:14:42.569Z,1006.62
2022-07-26T05:15:42.942Z,1006.62
2022-07-26T05:16:44.299Z,1006.59
2022-07-26T05:17:42.521Z,1006.66
2022-07-26T05:18:45.535Z,1006.66
2022-07-26T05:19:47.447Z,1006.66
2022-07-26T05:20:42.480Z,1006.68
2022-07-26T05:21:42.465Z,1006.67
2022-07-26T05:22:42.448Z,1006.71
2022-07-26T05:23:42.460Z,1006.71
2022-07-26T05:24:42.423Z,1006.74
2022-07-26T05:25:42.407Z,1006.78
2022-07-26T05:26:42.393Z,1006.75
2022-07-26T05:27:42.429Z,1006.77
2022-07-26T05:28:42.361Z,1006.78
2022-07-26T05:29:42.349Z,1006.80
2022-07-26T05:30:42.437Z,1006.78
2022-07-26T05:31:42.315Z,1006.78
2022-07-26T05:32:42.302Z,1006.78
2022-07-26T05:33:42.293Z,1006.80
2022-07-26T05:34:42.278Z,1006.82
2022-07-26T05:35:42.261Z,1006.82
2022-07-26T05:36:42.251Z,1006.82
2022-07-26T05:37:42.235Z,1006.81
2022-07-26T05:38:42.216Z,1006.84
2022-07-26T05:39:42.203Z,1006.82
2022-07-26T05:40:44.861Z,1006.85
2022-07-26T05:41:42.177Z,1006.89
2022-07-26T05:42:42.159Z,1006.84
2022-07-26T05:43:42.362Z,1006.88
2022-07-26T05:44:42.388Z,1006.86
2022-07-26T05:45:42.152Z,1006.89
2022-07-26T05:46:42.096Z,1006.89
2022-07-26T05:47:42.085Z,1006.86
2022-07-26T05:48:42.204Z,1006.85
2022-07-26T05:49:42.053Z,1006.86
2022-07-26T05:50:42.040Z,1006.91
2022-07-26T05:51:42.022Z,1006.94
2022-07-26T05:52:42.010Z,1006.93
2022-07-26T05:53:41.996Z,1006.90
2022-07-26T05:54:41.978Z,1006.93
2022-07-26T05:55:41.962Z,1006.95
2022-07-26T05:56:41.948Z,1006.97
2022-07-26T05:57:41.943Z,1006.93
2022-07-26T05:58:41.920Z,1006.94
2022-07-26T05:59:41.909Z,1006.96
2022-07-26T06:00:45.415Z,1006.91
2022-07-26T06:01:41.882Z,1006.94
2022-07-26T06:02:42.004Z,1006.93
2022-07-26T06:03:41.854Z,1006.93
2022-07-26T06:04:41.869Z,1006.94
2022-07-26T06:05:41.826Z,1007.03
2022-07-26T06:06:41.809Z,1007.05
2022-07-26T06:07:41.791Z,1007.07
2022-07-26T06:08:41.777Z,1007.11
2022-07-26T06:09:41.764Z,1007.11
2022-07-26T06:10:41.749Z,1007.08
2022-07-26T06:11:41.733Z,1007.06
2022-07-26T06:12:41.721Z,1007.21
2022-07-26T06:13:41.707Z,1007.13
2022-07-26T06:14:41.695Z,1007.12
2022-07-26T06:15:41.682Z,1007.13
2022-07-26T06:16:41.723Z,1007.17
2022-07-26T06:17:41.654Z,1007.18
2022-07-26T06:18:41.637Z,1007.18
2022-07-26T06:19:47.100Z,1007.20
2022-07-26T06:20:41.607Z,1007.23
2022-07-26T06:21:41.596Z,1007.25
2022-07-26T06:22:41.578Z,1007.19
2022-07-26T06:23:41.572Z,1007.26
2022-07-26T06:24:41.550Z,1007.22
2022-07-26T06:25:41.537Z,1007.24
2022-07-26T06:26:41.527Z,1007.25
2022-07-26T06:27:41.508Z,1007.28
2022-07-26T06:28:41.493Z,1007.24
2022-07-26T06:29:41.485Z,1007.34
2022-07-26T06:30:41.478Z,1007.32
2022-07-26T06:31:41.521Z,1007.33
2022-07-26T06:32:41.441Z,1007.39
2022-07-26T06:33:41.424Z,1007.40
2022-07-26T06:34:41.407Z,1007.40
2022-07-26T06:35:41.398Z,1007.45
2022-07-26T06:36:41.385Z,1007.42
2022-07-26T06:37:41.376Z,1007.53
2022-07-26T06:38:41.358Z,1007.41
2022-07-26T06:39:41.344Z,1007.44
2022-07-26T06:40:41.327Z,1007.40
2022-07-26T06:41:41.321Z,1007.42
2022-07-26T06:42:41.298Z,1007.46
2022-07-26T06:43:41.296Z,1007.47
2022-07-26T06:44:41.273Z,1007.50
2022-07-26T06:45:41.312Z,1007.47
2022-07-26T06:46:41.253Z,1007.52
2022-07-26T06:47:41.233Z,1007.55
2022-07-26T06:48:41.267Z,1007.54
2022-07-26T06:49:41.206Z,1007.49
2022-07-26T06:50:41.190Z,1007.50
2022-07-26T06:51:41.174Z,1007.49
2022-07-26T06:52:41.165Z,1007.47
2022-07-26T06:53:41.152Z,1007.50
2022-07-26T06:54:41.146Z,1007.48
2022-07-26T06:55:41.125Z,1007.50
2022-07-26T06:56:41.114Z,1007.47
2022-07-26T06:57:45.037Z,1007.41
2022-07-26T06:58:41.082Z,1007.43
2022-07-26T06:59:41.071Z,1007.45
2022-07-26T07:00:41.128Z,1007.49
2022-07-26T07:01:58.635Z,1007.51
2022-07-26T07:02:41.029Z,1007.48
2022-07-26T07:03:41.017Z,1007.49
2022-07-26T07:04:41.078Z,1007.50
2022-07-26T07:05:40.996Z,1007.43
2022-07-26T07:06:40.980Z,1007.43
2022-07-26T07:07:42.744Z,1007.45
2022-07-26T07:08:40.956Z,1007.48
2022-07-26T07:09:40.938Z,1007.46
2022-07-26T07:10:40.938Z,1007.45
2022-07-26T07:11:40.909Z,1007.38
2022-07-26T07:12:40.900Z,1007.45
2022-07-26T07:13:40.885Z,1007.42
2022-07-26T07:14:40.876Z,1007.44
2022-07-26T07:15:40.863Z,1007.46
2022-07-26T07:16:40.909Z,1007.51
2022-07-26T07:17:40.846Z,1007.48
2022-07-26T07:18:40.826Z,1007.45
2022-07-26T07:19:40.813Z,1007.55
2022-07-26T07:20:40.796Z,1007.58
2022-07-26T07:21:40.787Z,1007.55
2022-07-26T07:22:40.778Z,1007.56
2022-07-26T07:23:40.759Z,1007.54
2022-07-26T07:24:40.750Z,1007.55
2022-07-26T07:25:40.729Z,1007.57
2022-07-26T07:26:40.724Z,1007.60
2022-07-26T07:27:40.706Z,1007.62
2022-07-26T07:28:40.692Z,1007.59
2022-07-26T07:29:41.195Z,1007.60
2022-07-26T07:30:40.671Z,1007.55
2022-07-26T07:31:48.709Z,1007.63
2022-07-26T07:32:40.760Z,1007.60
2022-07-26T07:33:52.907Z,1007.56
2022-07-26T07:34:40.628Z,1007.58
2022-07-26T07:35:40.610Z,1007.55
2022-07-26T07:36:40.600Z,1007.59
2022-07-26T07:37:53.049Z,1007.55
2022-07-26T07:38:42.822Z,1007.51
2022-07-26T07:39:40.559Z,1007.50
2022-07-26T07:40:40.541Z,1007.58
2022-07-26T07:41:40.536Z,1007.57
2022-07-26T07:42:40.521Z,1007.57
2022-07-26T07:43:40.511Z,1007.61
2022-07-26T07:44:40.491Z,1007.66
2022-07-26T07:45:40.481Z,1007.67
2022-07-26T07:46:40.579Z,1007.64
2022-07-26T07:47:40.453Z,1007.70
2022-07-26T07:48:46.627Z,1007.71
2022-07-26T07:49:40.430Z,1007.67
2022-07-26T07:50:40.419Z,1007.70
2022-07-26T07:51:40.404Z,1007.71
2022-07-26T07:52:40.446Z,1007.72
2022-07-26T07:53:40.381Z,1007.65
2022-07-26T07:54:40.370Z,1007.64
2022-07-26T07:55:46.117Z,1007.62
2022-07-26T07:56:40.340Z,1007.59
2022-07-26T07:57:40.334Z,1007.63
2022-07-26T07:58:40.322Z,1007.67
2022-07-26T07:59:40.310Z,1007.65
2022-07-26T08:00:40.352Z,1007.72
2022-07-26T08:01:41.200Z,1007.64
2022-07-26T08:02:40.274Z,1007.68
2022-07-26T08:03:40.285Z,1007.70
2022-07-26T08:04:40.299Z,1007.65
2022-07-26T08:05:40.559Z,1007.73
2022-07-26T08:06:40.741Z,1007.69
2022-07-26T08:07:40.208Z,1007.60
2022-07-26T08:08:40.197Z,1007.67
2022-07-26T08:09:43.046Z,1007.65
2022-07-26T08:10:41.851Z,1007.69
2022-07-26T08:11:41.845Z,1007.79
2022-07-26T08:12:40.149Z,1007.74
2022-07-26T08:13:43.355Z,1007.67
2022-07-26T08:14:40.123Z,1007.65
2022-07-26T08:15:40.116Z,1007.68
2022-07-26T08:16:40.246Z,1007.67
2022-07-26T08:17:42.003Z,1007.67
2022-07-26T08:18:55.699Z,1007.69
2022-07-26T08:19:42.231Z,1007.66
2022-07-26T08:20:40.065Z,1007.65
2022-07-26T08:21:40.041Z,1007.65
2022-07-26T08:22:40.030Z,1007.61
2022-07-26T08:23:40.026Z,1007.65
2022-07-26T08:24:40.009Z,1007.61
2022-07-26T08:25:55.182Z,1007.63
2022-07-26T08:26:39.986Z,1007.69
2022-07-26T08:27:41.187Z,1007.68
2022-07-26T08:28:48.369Z,1007.67
2022-07-26T08:29:39.952Z,1007.78
2022-07-26T08:30:39.939Z,1007.71
2022-07-26T08:31:40.050Z,1007.71
2022-07-26T08:32:39.911Z,1007.79
2022-07-26T08:33:40.899Z,1007.76
2022-07-26T08:34:39.885Z,1007.83
2022-07-26T08:35:39.883Z,1007.84
2022-07-26T08:36:54.941Z,1007.95
2022-07-26T08:37:39.848Z,1007.95
2022-07-26T08:38:39.841Z,1008.00
2022-07-26T08:39:39.826Z,1008.00
2022-07-26T08:40:39.810Z,1008.02
2022-07-26T08:41:39.799Z,1008.04
2022-07-26T08:42:39.786Z,1008.08
2022-07-26T08:43:48.919Z,1008.04
2022-07-26T08:44:39.758Z,1008.03
2022-07-26T08:45:39.745Z,1008.04
2022-07-26T08:46:39.781Z,1008.09
2022-07-26T08:47:55.244Z,1008.11
2022-07-26T08:48:39.753Z,1008.12
2022-07-26T08:49:39.695Z,1008.14
2022-07-26T08:50:39.687Z,1008.16
2022-07-26T08:51:39.673Z,1008.22
2022-07-26T08:52:39.654Z,1008.23
2022-07-26T08:53:39.645Z,1008.27
2022-07-26T08:54:39.629Z,1008.31
2022-07-26T08:56:06.579Z,1008.39
2022-07-26T08:56:39.608Z,1008.39
2022-07-26T08:57:39.586Z,1008.44
2022-07-26T08:58:39.573Z,1008.44
2022-07-26T08:59:39.557Z,1008.46
2022-07-26T09:00:39.589Z,1008.46
2022-07-26T09:01:39.538Z,1008.49
2022-07-26T09:02:39.518Z,1008.44
2022-07-26T09:03:39.584Z,1008.40
2022-07-26T09:04:44.365Z,1008.40
2022-07-26T09:05:39.486Z,1008.42
2022-07-26T09:06:39.521Z,1008.46
2022-07-26T09:07:39.453Z,1008.46
2022-07-26T09:08:39.435Z,1008.48
2022-07-26T09:09:39.428Z,1008.54
2022-07-26T09:10:39.528Z,1008.55
2022-07-26T09:11:39.394Z,1008.57
2022-07-26T09:12:39.386Z,1008.54
2022-07-26T09:13:39.367Z,1008.55
2022-07-26T09:14:39.354Z,1008.58
2022-07-26T09:15:39.337Z,1008.60
2022-07-26T09:16:40.213Z,1008.61
2022-07-26T09:17:39.314Z,1008.63
2022-07-26T09:18:39.296Z,1008.65
2022-07-26T09:19:39.282Z,1008.67
2022-07-26T09:20:39.280Z,1008.69
2022-07-26T09:21:39.256Z,1008.69
2022-07-26T09:22:39.245Z,1008.65
2022-07-26T09:23:39.232Z,1008.65
2022-07-26T09:24:39.210Z,1008.68
2022-07-26T09:25:39.200Z,1008.69
2022-07-26T09:26:39.185Z,1008.69
2022-07-26T09:27:39.179Z,1008.69
2022-07-26T09:28:45.015Z,1008.72
2022-07-26T09:29:39.160Z,1008.73
2022-07-26T09:30:39.139Z,1008.71
2022-07-26T09:31:39.248Z,1008.75
2022-07-26T09:32:39.105Z,1008.78
2022-07-26T09:33:39.092Z,1008.75
2022-07-26T09:34:48.042Z,1008.76
2022-07-26T09:35:50.473Z,1008.79
2022-07-26T09:36:39.044Z,1008.78
2022-07-26T09:37:39.062Z,1008.80
2022-07-26T09:38:39.020Z,1008.81
2022-07-26T09:39:39.007Z,1008.81
2022-07-26T09:40:38.991Z,1008.83
2022-07-26T09:41:38.984Z,1008.83
2022-07-26T09:42:38.962Z,1008.81
2022-07-26T09:43:38.953Z,1008.81
2022-07-26T09:44:38.938Z,1008.81
2022-07-26T09:45:38.925Z,1008.80
2022-07-26T09:46:38.970Z,1008.78
2022-07-26T09:47:38.893Z,1008.80
2022-07-26T09:49:08.357Z,1008.82
2022-07-26T09:49:40.621Z,1008.81
2022-07-26T09:50:38.857Z,1008.81
2022-07-26T09:51:38.854Z,1008.83
2022-07-26T09:52:38.843Z,1008.83
2022-07-26T09:53:38.827Z,1008.87
2022-07-26T09:54:38.802Z,1008.88
2022-07-26T09:55:44.580Z,1008.86
2022-07-26T09:56:38.774Z,1008.89
2022-07-26T09:57:38.762Z,1008.89
2022-07-26T09:58:38.754Z,1008.91
2022-07-26T09:59:38.734Z,1008.96
2022-07-26T10:00:38.718Z,1008.91
2022-07-26T10:01:38.755Z,1008.94
2022-07-26T10:02:38.765Z,1008.99
2022-07-26T10:03:38.692Z,1008.97
2022-07-26T10:04:38.688Z,1008.98
2022-07-26T10:05:38.660Z,1009.00
2022-07-26T10:06:38.652Z,1009.01
2022-07-26T10:07:38.633Z,1009.00
2022-07-26T10:08:38.620Z,1009.03
2022-07-26T10:09:38.605Z,1009.08
2022-07-26T10:10:38.591Z,1009.07
2022-07-26T10:11:38.576Z,1009.09
2022-07-26T10:12:38.572Z,1009.12
2022-07-26T10:13:38.556Z,1009.18
2022-07-26T10:14:38.549Z,1009.26
2022-07-26T10:15:38.585Z,1009.27
2022-07-26T10:16:38.515Z,1009.29
2022-07-26T10:17:38.507Z,1009.32
2022-07-26T10:18:38.512Z,1009.30
2022-07-26T10:19:41.400Z,1009.30
2022-07-26T10:20:38.460Z,1009.31
2022-07-26T10:21:38.446Z,1009.30
2022-07-26T10:22:38.436Z,1009.31
2022-07-26T10:23:38.420Z,1009.31
2022-07-26T10:24:38.416Z,1009.33
2022-07-26T10:25:38.399Z,1009.35
2022-07-26T10:26:38.391Z,1009.33
2022-07-26T10:27:38.377Z,1009.35
2022-07-26T10:28:38.352Z,1009.39
2022-07-26T10:29:38.340Z,1009.35
2022-07-26T10:30:38.325Z,1009.39
2022-07-26T10:31:38.376Z,1009.46
2022-07-26T10:32:38.294Z,1009.50
2022-07-26T10:33:38.288Z,1009.48
2022-07-26T10:34:38.268Z,1009.52
2022-07-26T10:35:38.256Z,1009.51
2022-07-26T10:36:38.247Z,1009.51
2022-07-26T10:37:38.232Z,1009.52
2022-07-26T10:38:38.213Z,1009.50
2022-07-26T10:39:38.199Z,1009.51
2022-07-26T10:40:38.185Z,1009.55
2022-07-26T10:41:38.174Z,1009.58
2022-07-26T10:42:38.159Z,1009.56
2022-07-26T10:43:42.243Z,1009.56
2022-07-26T10:44:38.127Z,1009.59
2022-07-26T10:45:38.124Z,1009.53
2022-07-26T10:46:38.216Z,1009.60
2022-07-26T10:47:38.086Z,1009.63
2022-07-26T10:48:38.147Z,1009.60
2022-07-26T10:49:38.067Z,1009.61
2022-07-26T10:50:38.048Z,1009.61
2022-07-26T10:51:38.031Z,1009.64
2022-07-26T10:52:38.019Z,1009.63
2022-07-26T10:53:38.021Z,1009.64
2022-07-26T10:54:37.995Z,1009.62
2022-07-26T10:55:38.317Z,1009.65
2022-07-26T10:56:37.994Z,1009.64
2022-07-26T10:57:37.965Z,1009.67
2022-07-26T10:58:37.941Z,1009.65
2022-07-26T10:59:55.288Z,1009.66
2022-07-26T11:00:37.928Z,1009.66
2022-07-26T11:01:38.039Z,1009.67
2022-07-26T11:02:37.930Z,1009.68
2022-07-26T11:03:38.886Z,1009.69
2022-07-26T11:04:37.856Z,1009.69
2022-07-26T11:05:37.845Z,1009.70
2022-07-26T11:06:37.827Z,1009.73
2022-07-26T11:07:37.845Z,1009.74
2022-07-26T11:08:37.818Z,1009.74
2022-07-26T11:09:37.788Z,1009.72
2022-07-26T11:10:37.776Z,1009.71
2022-07-26T11:11:37.759Z,1009.66
2022-07-26T11:12:37.747Z,1009.68
2022-07-26T11:13:37.734Z,1009.68
2022-07-26T11:14:37.722Z,1009.71
2022-07-26T11:15:37.817Z,1009.74
2022-07-26T11:16:37.697Z,1009.69
2022-07-26T11:17:37.677Z,1009.71
2022-07-26T11:18:37.674Z,1009.70
2022-07-26T11:19:37.665Z,1009.70
2022-07-26T11:20:37.637Z,1009.68
2022-07-26T11:21:37.632Z,1009.75
2022-07-26T11:22:37.618Z,1009.73
2022-07-26T11:23:37.605Z,1009.71
2022-07-26T11:24:37.588Z,1009.71
2022-07-26T11:25:37.574Z,1009.73
2022-07-26T11:26:37.573Z,1009.73
2022-07-26T11:27:37.565Z,1009.70
2022-07-26T11:28:37.536Z,1009.71
2022-07-26T11:29:40.772Z,1009.72
2022-07-26T11:30:37.509Z,1009.76
2022-07-26T11:31:51.005Z,1009.71
2022-07-26T11:32:39.106Z,1009.76
2022-07-26T11:33:37.475Z,1009.75
2022-07-26T11:34:37.789Z,1009.74
2022-07-26T11:35:37.448Z,1009.75
2022-07-26T11:36:37.437Z,1009.76
2022-07-26T11:37:38.340Z,1009.78
2022-07-26T11:38:37.402Z,1009.74
2022-07-26T11:39:37.414Z,1009.75
2022-07-26T11:40:37.378Z,1009.79
2022-07-26T11:41:37.365Z,1009.76
2022-07-26T11:42:37.346Z,1009.78
2022-07-26T11:43:37.336Z,1009.76
2022-07-26T11:44:37.329Z,1009.81
2022-07-26T11:45:37.310Z,1009.78
2022-07-26T11:46:37.467Z,1009.84
2022-07-26T11:47:37.284Z,1009.81
2022-07-26T11:48:37.296Z,1009.81
2022-07-26T11:50:11.675Z,1009.80
2022-07-26T11:50:37.249Z,1009.84
2022-07-26T11:51:37.237Z,1009.88
2022-07-26T11:52:37.218Z,1009.84
2022-07-26T11:53:37.265Z,1009.90
2022-07-26T11:54:37.190Z,1009.90
2022-07-26T11:55:37.177Z,1009.91
2022-07-26T11:56:37.172Z,1009.91
2022-07-26T11:57:37.176Z,1009.92
2022-07-26T11:58:37.139Z,1009.98
2022-07-26T11:59:37.126Z,1009.98
2022-07-26T12:00:37.128Z,1009.96
2022-07-26T12:01:37.100Z,1009.99
2022-07-26T12:02:37.087Z,1009.99
2022-07-26T12:03:37.141Z,1009.97
2022-07-26T12:04:37.238Z,1010.01
2022-07-26T12:05:37.111Z,1010.00